sensor_id;sensor_type;location;lat;lon;timestamp;P1;durP1;ratioP1;P2;durP2;ratioP2
55134;SDS011;41031;44.750;11.308;2023-04-03T00:01:08;14.47;;;11.87;;
55134;SDS011;41031;44.750;11.308;2023-04-03T00:03:35;15.23;;;11.23;;
55134;SDS011;41031;44.750;11.308;2023-04-03T00:06:03;17.00;;;12.33;;
55134;SDS011;41031;44.750;11.308;2023-04-03T00:08:32;13.90;;;11.20;;
55134;SDS011;41031;44.750;11.308;2023-04-03T00:11:00;13.43;;;11.67;;
55134;SDS011;41031;44.750;11.308;2023-04-03T00:13:27;16.50;;;11.33;;
55134;SDS011;41031;44.750;11.308;2023-04-03T00:15:54;12.07;;;10.83;;
55134;SDS011;41031;44.750;11.308;2023-04-03T00:18:22;14.53;;;11.00;;
55134;SDS011;41031;44.750;11.308;2023-04-03T00:20:49;13.23;;;10.60;;
55134;SDS011;41031;44.750;11.308;2023-04-03T00:23:16;13.80;;;10.93;;
55134;SDS011;41031;44.750;11.308;2023-04-03T00:25:43;16.30;;;11.90;;
55134;SDS011;41031;44.750;11.308;2023-04-03T00:28:10;12.80;;;11.43;;
55134;SDS011;41031;44.750;11.308;2023-04-03T00:30:37;15.37;;;11.33;;
55134;SDS011;41031;44.750;11.308;2023-04-03T00:33:05;14.43;;;10.53;;
55134;SDS011;41031;44.750;11.308;2023-04-03T00:35:33;12.50;;;10.07;;
55134;SDS011;41031;44.750;11.308;2023-04-03T00:38:01;12.13;;;10.83;;
55134;SDS011;41031;44.750;11.308;2023-04-03T00:40:32;11.33;;;10.03;;
55134;SDS011;41031;44.750;11.308;2023-04-03T00:43:01;12.33;;;9.87;;
55134;SDS011;41031;44.750;11.308;2023-04-03T00:45:34;12.23;;;10.33;;
55134;SDS011;41031;44.750;11.308;2023-04-03T00:48:13;12.33;;;9.47;;
55134;SDS011;41031;44.750;11.308;2023-04-03T00:50:44;12.50;;;10.00;;
55134;SDS011;41031;44.750;11.308;2023-04-03T00:53:15;12.40;;;9.40;;
55134;SDS011;41031;44.750;11.308;2023-04-03T00:55:47;16.90;;;10.10;;
55134;SDS011;41031;44.750;11.308;2023-04-03T00:58:16;14.70;;;9.70;;
55134;SDS011;41031;44.750;11.308;2023-04-03T01:00:46;10.37;;;9.13;;
55134;SDS011;41031;44.750;11.308;2023-04-03T01:03:23;12.23;;;9.57;;
55134;SDS011;41031;44.750;11.308;2023-04-03T01:05:50;11.53;;;8.53;;
55134;SDS011;41031;44.750;11.308;2023-04-03T01:08:18;13.70;;;8.83;;
55134;SDS011;41031;44.750;11.308;2023-04-03T01:10:45;12.27;;;8.80;;
55134;SDS011;41031;44.750;11.308;2023-04-03T01:13:20;10.30;;;9.10;;
55134;SDS011;41031;44.750;11.308;2023-04-03T01:15:53;10.17;;;8.47;;
55134;SDS011;41031;44.750;11.308;2023-04-03T01:18:21;9.87;;;8.47;;
55134;SDS011;41031;44.750;11.308;2023-04-03T01:24:15;13.40;;;9.10;;
55134;SDS011;41031;44.750;11.308;2023-04-03T01:26:58;11.50;;;8.77;;
55134;SDS011;41031;44.750;11.308;2023-04-03T01:29:27;11.70;;;9.73;;
55134;SDS011;41031;44.750;11.308;2023-04-03T01:31:55;9.83;;;8.37;;
55134;SDS011;41031;44.750;11.308;2023-04-03T01:34:25;11.57;;;9.30;;
55134;SDS011;41031;44.750;11.308;2023-04-03T01:36:53;11.57;;;9.20;;
55134;SDS011;41031;44.750;11.308;2023-04-03T01:39:21;13.67;;;9.57;;
55134;SDS011;41031;44.750;11.308;2023-04-03T01:41:49;14.20;;;9.00;;
55134;SDS011;41031;44.750;11.308;2023-04-03T01:44:23;10.33;;;9.10;;
55134;SDS011;41031;44.750;11.308;2023-04-03T01:46:50;9.87;;;8.43;;
55134;SDS011;41031;44.750;11.308;2023-04-03T01:49:17;11.03;;;9.20;;
55134;SDS011;41031;44.750;11.308;2023-04-03T01:51:44;12.30;;;9.07;;
55134;SDS011;41031;44.750;11.308;2023-04-03T01:54:11;10.57;;;8.97;;
55134;SDS011;41031;44.750;11.308;2023-04-03T01:56:38;10.73;;;8.40;;
55134;SDS011;41031;44.750;11.308;2023-04-03T01:59:06;11.87;;;9.70;;
55134;SDS011;41031;44.750;11.308;2023-04-03T02:01:33;10.03;;;8.90;;
55134;SDS011;41031;44.750;11.308;2023-04-03T02:04:01;11.03;;;8.60;;
55134;SDS011;41031;44.750;11.308;2023-04-03T02:06:28;13.57;;;9.60;;
55134;SDS011;41031;44.750;11.308;2023-04-03T02:08:55;11.33;;;9.43;;
55134;SDS011;41031;44.750;11.308;2023-04-03T02:11:22;11.67;;;9.13;;
55134;SDS011;41031;44.750;11.308;2023-04-03T02:13:49;10.50;;;8.70;;
55134;SDS011;41031;44.750;11.308;2023-04-03T02:16:16;11.73;;;8.93;;
55134;SDS011;41031;44.750;11.308;2023-04-03T02:18:43;14.20;;;9.30;;
55134;SDS011;41031;44.750;11.308;2023-04-03T02:21:10;13.40;;;8.87;;
55134;SDS011;41031;44.750;11.308;2023-04-03T02:23:37;11.43;;;9.30;;
55134;SDS011;41031;44.750;11.308;2023-04-03T02:26:11;12.57;;;9.80;;
55134;SDS011;41031;44.750;11.308;2023-04-03T02:28:40;11.33;;;9.27;;
55134;SDS011;41031;44.750;11.308;2023-04-03T02:31:09;10.30;;;9.17;;
55134;SDS011;41031;44.750;11.308;2023-04-03T02:33:39;9.63;;;8.60;;
55134;SDS011;41031;44.750;11.308;2023-04-03T02:36:09;11.33;;;8.60;;
55134;SDS011;41031;44.750;11.308;2023-04-03T02:38:38;13.73;;;9.13;;
55134;SDS011;41031;44.750;11.308;2023-04-03T02:41:06;9.87;;;8.40;;
55134;SDS011;41031;44.750;11.308;2023-04-03T02:43:35;8.63;;;7.73;;
55134;SDS011;41031;44.750;11.308;2023-04-03T02:46:03;14.00;;;8.80;;
55134;SDS011;41031;44.750;11.308;2023-04-03T02:48:30;14.50;;;9.17;;
55134;SDS011;41031;44.750;11.308;2023-04-03T02:50:57;9.53;;;8.53;;
55134;SDS011;41031;44.750;11.308;2023-04-03T02:53:24;10.47;;;9.43;;
55134;SDS011;41031;44.750;11.308;2023-04-03T02:55:52;12.83;;;9.00;;
55134;SDS011;41031;44.750;11.308;2023-04-03T02:58:19;10.00;;;8.43;;
55134;SDS011;41031;44.750;11.308;2023-04-03T03:00:46;11.03;;;8.30;;
55134;SDS011;41031;44.750;11.308;2023-04-03T03:03:13;12.27;;;9.23;;
55134;SDS011;41031;44.750;11.308;2023-04-03T03:05:41;11.13;;;8.47;;
55134;SDS011;41031;44.750;11.308;2023-04-03T03:08:08;8.20;;;7.33;;
55134;SDS011;41031;44.750;11.308;2023-04-03T03:10:35;10.53;;;8.73;;
55134;SDS011;41031;44.750;11.308;2023-04-03T03:13:02;12.33;;;8.63;;
55134;SDS011;41031;44.750;11.308;2023-04-03T03:15:29;14.80;;;9.03;;
55134;SDS011;41031;44.750;11.308;2023-04-03T03:17:56;12.97;;;8.70;;
55134;SDS011;41031;44.750;11.308;2023-04-03T03:20:24;12.23;;;10.03;;
55134;SDS011;41031;44.750;11.308;2023-04-03T03:22:51;10.70;;;9.00;;
55134;SDS011;41031;44.750;11.308;2023-04-03T03:25:18;12.57;;;9.20;;
55134;SDS011;41031;44.750;11.308;2023-04-03T03:27:45;13.60;;;9.37;;
55134;SDS011;41031;44.750;11.308;2023-04-03T03:30:12;12.80;;;9.20;;
55134;SDS011;41031;44.750;11.308;2023-04-03T03:32:39;11.67;;;9.87;;
55134;SDS011;41031;44.750;11.308;2023-04-03T03:35:07;11.30;;;9.43;;
55134;SDS011;41031;44.750;11.308;2023-04-03T03:37:34;11.77;;;9.70;;
55134;SDS011;41031;44.750;11.308;2023-04-03T03:40:01;14.83;;;9.33;;
55134;SDS011;41031;44.750;11.308;2023-04-03T03:42:30;10.63;;;9.57;;
55134;SDS011;41031;44.750;11.308;2023-04-03T03:44:57;13.20;;;10.43;;
55134;SDS011;41031;44.750;11.308;2023-04-03T03:47:24;11.83;;;9.73;;
55134;SDS011;41031;44.750;11.308;2023-04-03T03:49:52;13.53;;;9.93;;
55134;SDS011;41031;44.750;11.308;2023-04-03T03:52:19;11.97;;;9.73;;
55134;SDS011;41031;44.750;11.308;2023-04-03T03:54:46;9.93;;;8.80;;
55134;SDS011;41031;44.750;11.308;2023-04-03T03:57:15;14.00;;;9.40;;
55134;SDS011;41031;44.750;11.308;2023-04-03T03:59:42;10.93;;;9.60;;
55134;SDS011;41031;44.750;11.308;2023-04-03T04:02:10;15.03;;;9.53;;
55134;SDS011;41031;44.750;11.308;2023-04-03T04:04:38;10.63;;;9.33;;
55134;SDS011;41031;44.750;11.308;2023-04-03T04:07:05;10.70;;;9.13;;
55134;SDS011;41031;44.750;11.308;2023-04-03T04:09:33;9.57;;;8.57;;
55134;SDS011;41031;44.750;11.308;2023-04-03T04:12:01;10.77;;;9.00;;
55134;SDS011;41031;44.750;11.308;2023-04-03T04:14:31;11.40;;;9.10;;
55134;SDS011;41031;44.750;11.308;2023-04-03T04:16:58;9.90;;;8.90;;
55134;SDS011;41031;44.750;11.308;2023-04-03T04:19:26;9.53;;;8.53;;
55134;SDS011;41031;44.750;11.308;2023-04-03T04:21:53;10.27;;;8.30;;
55134;SDS011;41031;44.750;11.308;2023-04-03T04:24:21;14.47;;;8.87;;
55134;SDS011;41031;44.750;11.308;2023-04-03T04:26:54;12.07;;;9.77;;
55134;SDS011;41031;44.750;11.308;2023-04-03T04:29:22;10.67;;;8.93;;
55134;SDS011;41031;44.750;11.308;2023-04-03T04:31:50;9.20;;;8.17;;
55134;SDS011;41031;44.750;11.308;2023-04-03T04:34:19;10.33;;;7.80;;
55134;SDS011;41031;44.750;11.308;2023-04-03T04:36:47;9.23;;;8.10;;
55134;SDS011;41031;44.750;11.308;2023-04-03T04:39:14;14.93;;;9.23;;
55134;SDS011;41031;44.750;11.308;2023-04-03T04:41:42;10.83;;;8.90;;
55134;SDS011;41031;44.750;11.308;2023-04-03T04:44:10;9.83;;;8.30;;
55134;SDS011;41031;44.750;11.308;2023-04-03T04:46:38;10.97;;;9.13;;
55134;SDS011;41031;44.750;11.308;2023-04-03T04:49:07;11.70;;;8.77;;
55134;SDS011;41031;44.750;11.308;2023-04-03T04:51:34;7.67;;;6.70;;
55134;SDS011;41031;44.750;11.308;2023-04-03T04:54:20;7.00;;;6.27;;
55134;SDS011;41031;44.750;11.308;2023-04-03T04:56:49;8.17;;;7.37;;
55134;SDS011;41031;44.750;11.308;2023-04-03T04:59:17;8.37;;;6.83;;
55134;SDS011;41031;44.750;11.308;2023-04-03T05:01:47;7.37;;;6.67;;
55134;SDS011;41031;44.750;11.308;2023-04-03T05:04:16;8.30;;;7.53;;
55134;SDS011;41031;44.750;11.308;2023-04-03T05:06:48;9.60;;;7.10;;
55134;SDS011;41031;44.750;11.308;2023-04-03T05:09:20;8.50;;;7.20;;
55134;SDS011;41031;44.750;11.308;2023-04-03T05:11:49;9.80;;;7.73;;
55134;SDS011;41031;44.750;11.308;2023-04-03T05:14:20;8.97;;;6.53;;
55134;SDS011;41031;44.750;11.308;2023-04-03T05:16:48;6.87;;;6.27;;
55134;SDS011;41031;44.750;11.308;2023-04-03T05:19:22;12.83;;;9.20;;
55134;SDS011;41031;44.750;11.308;2023-04-03T05:21:50;12.23;;;9.17;;
55134;SDS011;41031;44.750;11.308;2023-04-03T05:24:20;13.63;;;9.87;;
55134;SDS011;41031;44.750;11.308;2023-04-03T05:26:48;10.97;;;8.93;;
55134;SDS011;41031;44.750;11.308;2023-04-03T05:29:16;15.07;;;9.53;;
55134;SDS011;41031;44.750;11.308;2023-04-03T05:31:45;13.73;;;8.40;;
55134;SDS011;41031;44.750;11.308;2023-04-03T05:34:12;12.43;;;9.67;;
55134;SDS011;41031;44.750;11.308;2023-04-03T05:36:41;15.13;;;11.00;;
55134;SDS011;41031;44.750;11.308;2023-04-03T05:39:10;14.20;;;10.13;;
55134;SDS011;41031;44.750;11.308;2023-04-03T05:41:41;11.37;;;10.13;;
55134;SDS011;41031;44.750;11.308;2023-04-03T05:44:08;10.50;;;9.33;;
55134;SDS011;41031;44.750;11.308;2023-04-03T05:46:36;12.57;;;9.60;;
55134;SDS011;41031;44.750;11.308;2023-04-03T05:49:07;11.50;;;8.97;;
55134;SDS011;41031;44.750;11.308;2023-04-03T05:51:36;11.00;;;9.10;;
55134;SDS011;41031;44.750;11.308;2023-04-03T05:56:52;12.33;;;10.67;;
55134;SDS011;41031;44.750;11.308;2023-04-03T05:59:20;13.43;;;10.67;;
55134;SDS011;41031;44.750;11.308;2023-04-03T06:01:50;12.77;;;11.20;;
55134;SDS011;41031;44.750;11.308;2023-04-03T06:04:18;16.77;;;11.87;;
55134;SDS011;41031;44.750;11.308;2023-04-03T06:06:52;13.13;;;10.80;;
55134;SDS011;41031;44.750;11.308;2023-04-03T06:09:22;14.23;;;10.37;;
55134;SDS011;41031;44.750;11.308;2023-04-03T06:11:53;12.03;;;10.47;;
55134;SDS011;41031;44.750;11.308;2023-04-03T06:14:23;12.30;;;10.17;;
55134;SDS011;41031;44.750;11.308;2023-04-03T06:16:52;12.23;;;10.20;;
55134;SDS011;41031;44.750;11.308;2023-04-03T06:19:20;16.77;;;11.00;;
55134;SDS011;41031;44.750;11.308;2023-04-03T06:21:51;18.87;;;12.23;;
55134;SDS011;41031;44.750;11.308;2023-04-03T06:24:20;14.60;;;12.47;;
55134;SDS011;41031;44.750;11.308;2023-04-03T06:26:51;15.90;;;12.67;;
55134;SDS011;41031;44.750;11.308;2023-04-03T06:29:20;13.83;;;11.03;;
55134;SDS011;41031;44.750;11.308;2023-04-03T06:31:48;13.33;;;10.33;;
55134;SDS011;41031;44.750;11.308;2023-04-03T06:34:16;14.77;;;11.37;;
55134;SDS011;41031;44.750;11.308;2023-04-03T06:36:44;14.47;;;11.73;;
55134;SDS011;41031;44.750;11.308;2023-04-03T06:39:13;17.33;;;12.53;;
55134;SDS011;41031;44.750;11.308;2023-04-03T06:41:43;16.23;;;11.50;;
55134;SDS011;41031;44.750;11.308;2023-04-03T06:44:10;13.67;;;11.13;;
55134;SDS011;41031;44.750;11.308;2023-04-03T06:46:39;13.27;;;11.13;;
55134;SDS011;41031;44.750;11.308;2023-04-03T06:49:07;12.40;;;11.13;;
55134;SDS011;41031;44.750;11.308;2023-04-03T06:51:35;15.00;;;12.03;;
55134;SDS011;41031;44.750;11.308;2023-04-03T06:54:03;13.10;;;11.50;;
55134;SDS011;41031;44.750;11.308;2023-04-03T06:56:33;12.00;;;10.70;;
55134;SDS011;41031;44.750;11.308;2023-04-03T06:59:02;13.80;;;10.67;;
55134;SDS011;41031;44.750;11.308;2023-04-03T07:01:30;14.07;;;12.20;;
55134;SDS011;41031;44.750;11.308;2023-04-03T07:03:58;12.37;;;11.07;;
55134;SDS011;41031;44.750;11.308;2023-04-03T07:06:26;14.83;;;12.77;;
55134;SDS011;41031;44.750;11.308;2023-04-03T07:08:54;17.60;;;15.67;;
55134;SDS011;41031;44.750;11.308;2023-04-03T07:11:22;14.23;;;11.43;;
55134;SDS011;41031;44.750;11.308;2023-04-03T07:13:49;8.40;;;7.50;;
55134;SDS011;41031;44.750;11.308;2023-04-03T07:16:17;9.33;;;6.73;;
55134;SDS011;41031;44.750;11.308;2023-04-03T07:18:45;9.00;;;6.70;;
55134;SDS011;41031;44.750;11.308;2023-04-03T07:21:12;8.27;;;6.80;;
55134;SDS011;41031;44.750;11.308;2023-04-03T07:23:40;9.13;;;6.47;;
55134;SDS011;41031;44.750;11.308;2023-04-03T07:26:07;7.53;;;6.20;;
55134;SDS011;41031;44.750;11.308;2023-04-03T07:28:36;8.40;;;6.90;;
55134;SDS011;41031;44.750;11.308;2023-04-03T07:31:04;13.37;;;6.13;;
55134;SDS011;41031;44.750;11.308;2023-04-03T07:33:35;7.83;;;5.37;;
55134;SDS011;41031;44.750;11.308;2023-04-03T07:36:04;8.27;;;6.00;;
55134;SDS011;41031;44.750;11.308;2023-04-03T07:38:36;6.10;;;5.00;;
55134;SDS011;41031;44.750;11.308;2023-04-03T07:41:04;6.40;;;5.70;;
55134;SDS011;41031;44.750;11.308;2023-04-03T07:43:32;5.43;;;4.93;;
55134;SDS011;41031;44.750;11.308;2023-04-03T07:46:00;8.13;;;5.70;;
55134;SDS011;41031;44.750;11.308;2023-04-03T07:48:28;7.40;;;4.23;;
55134;SDS011;41031;44.750;11.308;2023-04-03T07:50:59;8.33;;;4.53;;
55134;SDS011;41031;44.750;11.308;2023-04-03T07:53:27;6.07;;;4.50;;
55134;SDS011;41031;44.750;11.308;2023-04-03T07:55:56;5.90;;;4.30;;
55134;SDS011;41031;44.750;11.308;2023-04-03T07:58:24;9.00;;;5.20;;
55134;SDS011;41031;44.750;11.308;2023-04-03T08:00:52;8.83;;;4.13;;
55134;SDS011;41031;44.750;11.308;2023-04-03T08:03:19;7.17;;;3.60;;
55134;SDS011;41031;44.750;11.308;2023-04-03T08:05:47;5.93;;;4.43;;
55134;SDS011;41031;44.750;11.308;2023-04-03T08:08:16;4.73;;;3.40;;
55134;SDS011;41031;44.750;11.308;2023-04-03T08:10:51;4.60;;;4.10;;
55134;SDS011;41031;44.750;11.308;2023-04-03T08:13:21;5.23;;;3.73;;
55134;SDS011;41031;44.750;11.308;2023-04-03T08:15:49;4.07;;;3.17;;
55134;SDS011;41031;44.750;11.308;2023-04-03T08:18:17;4.43;;;3.40;;
55134;SDS011;41031;44.750;11.308;2023-04-03T08:20:49;6.97;;;3.40;;
55134;SDS011;41031;44.750;11.308;2023-04-03T08:23:17;6.00;;;3.43;;
55134;SDS011;41031;44.750;11.308;2023-04-03T08:25:45;5.57;;;3.40;;
55134;SDS011;41031;44.750;11.308;2023-04-03T08:28:13;5.07;;;3.20;;
55134;SDS011;41031;44.750;11.308;2023-04-03T08:30:42;5.63;;;3.47;;
55134;SDS011;41031;44.750;11.308;2023-04-03T08:33:10;5.03;;;3.43;;
55134;SDS011;41031;44.750;11.308;2023-04-03T08:35:39;7.13;;;3.00;;
55134;SDS011;41031;44.750;11.308;2023-04-03T08:38:09;4.70;;;2.40;;
55134;SDS011;41031;44.750;11.308;2023-04-03T08:40:39;4.33;;;2.37;;
55134;SDS011;41031;44.750;11.308;2023-04-03T08:46:06;2.83;;;1.30;;
55134;SDS011;41031;44.750;11.308;2023-04-03T08:48:42;4.83;;;1.70;;
55134;SDS011;41031;44.750;11.308;2023-04-03T08:51:14;3.73;;;1.70;;
55134;SDS011;41031;44.750;11.308;2023-04-03T08:53:52;3.63;;;1.30;;
55134;SDS011;41031;44.750;11.308;2023-04-03T08:56:31;1.30;;;1.20;;
55134;SDS011;41031;44.750;11.308;2023-04-03T08:59:05;1.40;;;1.20;;
55134;SDS011;41031;44.750;11.308;2023-04-03T09:01:39;1.60;;;1.00;;
55134;SDS011;41031;44.750;11.308;2023-04-03T09:04:12;1.77;;;1.00;;
55134;SDS011;41031;44.750;11.308;2023-04-03T09:06:48;3.87;;;1.10;;
55134;SDS011;41031;44.750;11.308;2023-04-03T09:14:38;1.37;;;0.90;;
55134;SDS011;41031;44.750;11.308;2023-04-03T09:22:58;3.13;;;0.87;;
55134;SDS011;41031;44.750;11.308;2023-04-03T09:25:36;0.67;;;0.40;;
55134;SDS011;41031;44.750;11.308;2023-04-03T09:28:05;2.50;;;0.83;;
55134;SDS011;41031;44.750;11.308;2023-04-03T09:30:36;1.53;;;0.80;;
55134;SDS011;41031;44.750;11.308;2023-04-03T09:33:06;2.37;;;0.77;;
55134;SDS011;41031;44.750;11.308;2023-04-03T09:35:37;3.23;;;0.60;;
55134;SDS011;41031;44.750;11.308;2023-04-03T09:41:06;0.97;;;0.60;;
55134;SDS011;41031;44.750;11.308;2023-04-03T09:43:42;2.00;;;0.70;;
55134;SDS011;41031;44.750;11.308;2023-04-03T09:46:33;2.40;;;0.97;;
55134;SDS011;41031;44.750;11.308;2023-04-03T09:49:02;2.23;;;0.70;;
55134;SDS011;41031;44.750;11.308;2023-04-03T09:51:36;1.97;;;0.90;;
55134;SDS011;41031;44.750;11.308;2023-04-03T09:54:26;1.80;;;1.20;;
55134;SDS011;41031;44.750;11.308;2023-04-03T09:57:05;0.67;;;0.60;;
55134;SDS011;41031;44.750;11.308;2023-04-03T09:59:42;0.77;;;0.73;;
55134;SDS011;41031;44.750;11.308;2023-04-03T10:02:38;0.87;;;0.67;;
55134;SDS011;41031;44.750;11.308;2023-04-03T10:10:48;1.00;;;0.90;;
55134;SDS011;41031;44.750;11.308;2023-04-03T10:13:34;6.00;;;1.40;;
55134;SDS011;41031;44.750;11.308;2023-04-03T10:16:17;1.07;;;0.70;;
55134;SDS011;41031;44.750;11.308;2023-04-03T10:21:53;7.07;;;1.00;;
55134;SDS011;41031;44.750;11.308;2023-04-03T10:24:30;1.50;;;0.90;;
55134;SDS011;41031;44.750;11.308;2023-04-03T10:27:06;1.10;;;1.00;;
55134;SDS011;41031;44.750;11.308;2023-04-03T10:30:16;1.90;;;1.80;;
55134;SDS011;41031;44.750;11.308;2023-04-03T10:36:07;5.97;;;4.30;;
55134;SDS011;41031;44.750;11.308;2023-04-03T10:38:57;4.17;;;3.77;;
55134;SDS011;41031;44.750;11.308;2023-04-03T10:47:24;5.27;;;4.10;;
55134;SDS011;41031;44.750;11.308;2023-04-03T10:53:08;5.83;;;3.30;;
55134;SDS011;41031;44.750;11.308;2023-04-03T10:58:48;3.00;;;2.70;;
55134;SDS011;41031;44.750;11.308;2023-04-03T11:01:25;3.67;;;1.60;;
55134;SDS011;41031;44.750;11.308;2023-04-03T11:04:04;2.90;;;1.33;;
55134;SDS011;41031;44.750;11.308;2023-04-03T11:06:39;6.90;;;2.33;;
55134;SDS011;41031;44.750;11.308;2023-04-03T11:11:56;7.93;;;1.73;;
55134;SDS011;41031;44.750;11.308;2023-04-03T11:14:33;3.80;;;1.67;;
55134;SDS011;41031;44.750;11.308;2023-04-03T11:19:42;1.93;;;1.33;;
55134;SDS011;41031;44.750;11.308;2023-04-03T11:27:45;5.80;;;1.23;;
55134;SDS011;41031;44.750;11.308;2023-04-03T11:36:03;5.17;;;1.67;;
55134;SDS011;41031;44.750;11.308;2023-04-03T11:38:52;2.47;;;1.23;;
55134;SDS011;41031;44.750;11.308;2023-04-03T11:41:33;3.70;;;1.37;;
55134;SDS011;41031;44.750;11.308;2023-04-03T11:44:06;5.57;;;1.47;;
55134;SDS011;41031;44.750;11.308;2023-04-03T11:46:57;4.10;;;2.20;;
55134;SDS011;41031;44.750;11.308;2023-04-03T12:22:18;1.27;;;0.93;;
55134;SDS011;41031;44.750;11.308;2023-04-03T12:24:29;8.60;;;0.50;;
55134;SDS011;41031;44.750;11.308;2023-04-03T12:27:02;3.83;;;1.20;;
55134;SDS011;41031;44.750;11.308;2023-04-03T12:29:58;2.20;;;0.80;;
55134;SDS011;41031;44.750;11.308;2023-04-03T12:40:53;3.67;;;0.80;;
55134;SDS011;41031;44.750;11.308;2023-04-03T12:46:26;2.30;;;0.83;;
55134;SDS011;41031;44.750;11.308;2023-04-03T12:49:05;3.47;;;0.60;;
55134;SDS011;41031;44.750;11.308;2023-04-03T12:52:01;2.30;;;0.73;;
55134;SDS011;41031;44.750;11.308;2023-04-03T12:54:36;3.13;;;0.80;;
55134;SDS011;41031;44.750;11.308;2023-04-03T12:59:46;1.63;;;0.87;;
55134;SDS011;41031;44.750;11.308;2023-04-03T13:04:58;1.00;;;0.80;;
55134;SDS011;41031;44.750;11.308;2023-04-03T13:07:37;0.70;;;0.70;;
55134;SDS011;41031;44.750;11.308;2023-04-03T13:12:44;2.03;;;0.80;;
55134;SDS011;41031;44.750;11.308;2023-04-03T13:17:50;1.47;;;0.87;;
55134;SDS011;41031;44.750;11.308;2023-04-03T13:22:52;2.63;;;0.90;;
55134;SDS011;41031;44.750;11.308;2023-04-03T13:25:24;2.47;;;0.60;;
55134;SDS011;41031;44.750;11.308;2023-04-03T13:27:57;4.13;;;1.17;;
55134;SDS011;41031;44.750;11.308;2023-04-03T13:30:40;3.40;;;0.90;;
55134;SDS011;41031;44.750;11.308;2023-04-03T13:33:22;3.13;;;1.17;;
55134;SDS011;41031;44.750;11.308;2023-04-03T13:35:55;1.73;;;0.60;;
55134;SDS011;41031;44.750;11.308;2023-04-03T13:38:44;1.63;;;0.80;;
55134;SDS011;41031;44.750;11.308;2023-04-03T13:43:53;0.70;;;0.70;;
55134;SDS011;41031;44.750;11.308;2023-04-03T13:46:36;2.03;;;1.00;;
55134;SDS011;41031;44.750;11.308;2023-04-03T13:49:16;4.20;;;0.80;;
55134;SDS011;41031;44.750;11.308;2023-04-03T13:51:46;2.93;;;0.97;;
55134;SDS011;41031;44.750;11.308;2023-04-03T13:54:33;1.67;;;0.60;;
55134;SDS011;41031;44.750;11.308;2023-04-03T13:57:03;1.30;;;1.20;;
55134;SDS011;41031;44.750;11.308;2023-04-03T13:59:39;2.23;;;0.93;;
55134;SDS011;41031;44.750;11.308;2023-04-03T14:02:16;1.57;;;0.73;;
55134;SDS011;41031;44.750;11.308;2023-04-03T14:04:49;1.03;;;0.80;;
55134;SDS011;41031;44.750;11.308;2023-04-03T14:07:24;2.20;;;1.07;;
55134;SDS011;41031;44.750;11.308;2023-04-03T14:09:53;0.57;;;0.57;;
55134;SDS011;41031;44.750;11.308;2023-04-03T14:12:31;3.17;;;0.80;;
55134;SDS011;41031;44.750;11.308;2023-04-03T14:15:04;1.03;;;0.80;;
55134;SDS011;41031;44.750;11.308;2023-04-03T14:17:52;2.37;;;1.20;;
55134;SDS011;41031;44.750;11.308;2023-04-03T14:20:21;2.83;;;1.00;;
55134;SDS011;41031;44.750;11.308;2023-04-03T14:22:51;2.37;;;0.87;;
55134;SDS011;41031;44.750;11.308;2023-04-03T14:25:18;5.70;;;1.07;;
55134;SDS011;41031;44.750;11.308;2023-04-03T14:27:47;2.57;;;0.80;;
55134;SDS011;41031;44.750;11.308;2023-04-03T14:30:23;1.50;;;1.33;;
55134;SDS011;41031;44.750;11.308;2023-04-03T14:32:52;9.03;;;0.90;;
55134;SDS011;41031;44.750;11.308;2023-04-03T14:35:21;4.87;;;1.20;;
55134;SDS011;41031;44.750;11.308;2023-04-03T14:37:49;1.77;;;0.90;;
55134;SDS011;41031;44.750;11.308;2023-04-03T14:40:24;0.97;;;0.70;;
55134;SDS011;41031;44.750;11.308;2023-04-03T14:42:53;3.20;;;1.17;;
55134;SDS011;41031;44.750;11.308;2023-04-03T14:45:22;3.13;;;1.13;;
55134;SDS011;41031;44.750;11.308;2023-04-03T14:47:53;2.57;;;0.97;;
55134;SDS011;41031;44.750;11.308;2023-04-03T14:50:23;0.80;;;0.77;;
55134;SDS011;41031;44.750;11.308;2023-04-03T14:52:52;2.53;;;0.97;;
55134;SDS011;41031;44.750;11.308;2023-04-03T14:55:22;3.37;;;1.20;;
55134;SDS011;41031;44.750;11.308;2023-04-03T14:57:50;1.47;;;0.90;;
55134;SDS011;41031;44.750;11.308;2023-04-03T15:00:19;2.07;;;1.10;;
55134;SDS011;41031;44.750;11.308;2023-04-03T15:02:47;0.90;;;0.80;;
55134;SDS011;41031;44.750;11.308;2023-04-03T15:05:15;1.20;;;0.80;;
55134;SDS011;41031;44.750;11.308;2023-04-03T15:07:45;3.73;;;0.80;;
55134;SDS011;41031;44.750;11.308;2023-04-03T15:12:47;2.17;;;1.27;;
55134;SDS011;41031;44.750;11.308;2023-04-03T15:15:15;3.20;;;0.97;;
55134;SDS011;41031;44.750;11.308;2023-04-03T15:17:43;3.33;;;0.93;;
55134;SDS011;41031;44.750;11.308;2023-04-03T15:20:15;2.60;;;1.00;;
55134;SDS011;41031;44.750;11.308;2023-04-03T15:22:44;0.97;;;0.77;;
55134;SDS011;41031;44.750;11.308;2023-04-03T15:25:12;1.40;;;0.93;;
55134;SDS011;41031;44.750;11.308;2023-04-03T15:27:39;1.00;;;0.90;;
55134;SDS011;41031;44.750;11.308;2023-04-03T15:30:07;1.57;;;0.70;;
55134;SDS011;41031;44.750;11.308;2023-04-03T15:32:38;0.80;;;0.80;;
55134;SDS011;41031;44.750;11.308;2023-04-03T15:35:05;1.93;;;1.03;;
55134;SDS011;41031;44.750;11.308;2023-04-03T15:37:32;1.07;;;0.97;;
55134;SDS011;41031;44.750;11.308;2023-04-03T15:39:59;5.47;;;0.70;;
55134;SDS011;41031;44.750;11.308;2023-04-03T15:42:26;2.87;;;0.87;;
55134;SDS011;41031;44.750;11.308;2023-04-03T15:44:53;1.60;;;0.80;;
55134;SDS011;41031;44.750;11.308;2023-04-03T15:47:20;1.27;;;1.07;;
55134;SDS011;41031;44.750;11.308;2023-04-03T15:49:47;2.03;;;0.97;;
55134;SDS011;41031;44.750;11.308;2023-04-03T15:52:14;2.27;;;0.90;;
55134;SDS011;41031;44.750;11.308;2023-04-03T15:54:41;1.10;;;0.90;;
55134;SDS011;41031;44.750;11.308;2023-04-03T15:57:08;6.07;;;1.03;;
55134;SDS011;41031;44.750;11.308;2023-04-03T15:59:35;1.30;;;1.10;;
55134;SDS011;41031;44.750;11.308;2023-04-03T16:02:03;1.27;;;0.93;;
55134;SDS011;41031;44.750;11.308;2023-04-03T16:04:34;2.00;;;0.70;;
55134;SDS011;41031;44.750;11.308;2023-04-03T16:07:02;2.33;;;0.97;;
55134;SDS011;41031;44.750;11.308;2023-04-03T16:09:30;2.50;;;1.00;;
55134;SDS011;41031;44.750;11.308;2023-04-03T16:11:59;2.30;;;0.80;;
55134;SDS011;41031;44.750;11.308;2023-04-03T16:14:27;0.80;;;0.80;;
55134;SDS011;41031;44.750;11.308;2023-04-03T16:16:56;3.40;;;0.90;;
55134;SDS011;41031;44.750;11.308;2023-04-03T16:19:28;2.47;;;1.00;;
55134;SDS011;41031;44.750;11.308;2023-04-03T16:21:56;2.60;;;1.10;;
55134;SDS011;41031;44.750;11.308;2023-04-03T16:24:23;2.33;;;0.80;;
55134;SDS011;41031;44.750;11.308;2023-04-03T16:26:50;1.37;;;0.63;;
55134;SDS011;41031;44.750;11.308;2023-04-03T16:29:19;1.53;;;0.80;;
55134;SDS011;41031;44.750;11.308;2023-04-03T16:31:46;4.63;;;0.90;;
55134;SDS011;41031;44.750;11.308;2023-04-03T16:34:13;0.70;;;0.70;;
55134;SDS011;41031;44.750;11.308;2023-04-03T16:36:41;1.70;;;1.03;;
55134;SDS011;41031;44.750;11.308;2023-04-03T16:39:09;1.40;;;1.07;;
55134;SDS011;41031;44.750;11.308;2023-04-03T16:41:36;2.67;;;0.87;;
55134;SDS011;41031;44.750;11.308;2023-04-03T16:44:03;2.40;;;0.90;;
55134;SDS011;41031;44.750;11.308;2023-04-03T16:46:30;1.53;;;1.00;;
55134;SDS011;41031;44.750;11.308;2023-04-03T16:48:57;4.20;;;1.10;;
55134;SDS011;41031;44.750;11.308;2023-04-03T16:51:24;3.97;;;0.97;;